Time;durP1;ratioP1;P1;durP2;ratioP2;P2;SDS_P1;SDS_P2;PMS_P1;PMS_P2;Temp;Humidity;BMP_temperature;BMP_pressure;BME280_temperature;BME280_humidity;BME280_pressure;Samples;Min_cycle;Max_cycle;Signal;HPM_P1;HPM_P2
2023/03/18 00:01:11;;;;;;;15.50;10.80;;;;;;;5.59;62.37;101470.58;105680;1254;60564;-47
2023/03/18 00:03:42;;;;;;;10.60;4.40;;;;;;;5.55;62.48;101471.79;105676;1256;66141;-48
2023/03/18 00:06:15;;;;;;;12.90;10.20;;;;;;;5.57;62.47;101471.53;105538;1257;62612;-48
2023/03/18 00:08:46;;;;;;;17.60;11.60;;;;;;;5.63;62.49;101471.98;105609;1256;64996;-48
2023/03/18 00:11:17;;;;;;;9.00;4.40;;;;;;;5.66;62.51;101476.20;105318;1256;60765;-48
2023/03/18 00:13:46;;;;;;;19.00;11.80;;;;;;;5.66;62.58;101475.86;105597;1256;60448;-48
2023/03/18 00:16:16;;;;;;;12.40;5.00;;;;;;;5.66;62.60;101474.11;105385;1257;66085;-48
2023/03/18 00:18:47;;;;;;;15.00;11.30;;;;;;;5.66;62.62;101477.98;105488;1257;62803;-48
2023/03/18 00:21:15;;;;;;;11.50;4.60;;;;;;;5.63;62.56;101473.05;105665;1256;63934;-48
2023/03/18 00:23:44;;;;;;;14.20;10.70;;;;;;;5.59;62.61;101473.20;105595;1254;60535;-48
2023/03/18 00:26:14;;;;;;;15.00;5.80;;;;;;;5.55;62.68;101474.55;106118;1256;61140;-48
2023/03/18 00:28:44;;;;;;;9.00;4.10;;;;;;;5.59;62.67;101473.89;108655;1253;66148;-48
2023/03/18 00:31:14;;;;;;;15.80;12.00;;;;;;;5.66;62.54;101477.42;105508;1256;62825;-48
2023/03/18 00:33:44;;;;;;;13.50;10.30;;;;;;;5.73;62.49;101474.34;105640;1257;64105;-48
2023/03/18 00:36:15;;;;;;;14.50;10.30;;;;;;;5.78;62.49;101475.35;105689;1255;60511;-49
2023/03/18 00:38:49;;;;;;;10.60;4.70;;;;;;;5.83;62.52;101475.34;105513;1252;60555;-47
2023/03/18 00:41:20;;;;;;;18.90;11.80;;;;;;;5.83;62.46;101474.61;105562;1256;66250;-49
2023/03/18 00:43:53;;;;;;;16.40;12.10;;;;;;;5.81;62.32;101472.96;105710;1251;61453;-49
2023/03/18 00:46:24;;;;;;;13.50;5.20;;;;;;;5.76;62.24;101479.61;105513;1254;64126;-49
2023/03/18 00:48:56;;;;;;;12.00;5.70;;;;;;;5.69;62.38;101479.38;105422;1254;60556;-49
2023/03/18 00:51:26;;;;;;;15.60;11.30;;;;;;;5.65;62.42;101477.30;105462;1257;60546;-49
2023/03/18 00:54:00;;;;;;;16.30;11.50;;;;;;;5.61;62.60;101479.54;105581;1256;66337;-48
2023/03/18 00:56:30;;;;;;;6.10;2.90;;;;;;;5.64;62.62;101479.45;105372;1259;70428;-48
2023/03/18 00:58:59;;;;;;;16.40;11.60;;;;;;;5.69;62.57;101482.16;105585;1256;63824;-47
2023/03/18 01:01:27;;;;;;;17.20;11.50;;;;;;;5.71;62.67;101479.98;105602;1257;60476;-47
2023/03/18 01:03:59;;;;;;;9.40;4.40;;;;;;;5.70;62.59;101480.38;105582;1254;60936;-47
2023/03/18 01:06:32;;;;;;;10.80;4.80;;;;;;;5.70;62.45;101486.83;106098;1256;66124;-49
2023/03/18 01:09:01;;;;;;;16.10;11.30;;;;;;;5.68;62.48;101492.48;105496;1255;62446;-47
2023/03/18 01:11:30;;;;;;;16.60;11.30;;;;;;;5.65;62.62;101492.44;105548;1255;65072;-48
2023/03/18 01:13:59;;;;;;;11.30;5.30;;;;;;;5.64;62.61;101491.47;105899;1254;60469;-48
2023/03/18 01:16:28;;;;;;;15.50;11.50;;;;;;;5.58;62.51;101491.67;105519;1254;60460;-48
2023/03/18 01:18:57;;;;;;;12.40;4.30;;;;;;;5.55;62.61;101497.56;105566;1254;66239;-47
2023/03/18 01:21:25;;;;;;;8.80;4.50;;;;;;;5.56;62.61;101499.08;105507;1255;62573;-48
2023/03/18 01:23:59;;;;;;;15.00;10.30;;;;;;;5.59;62.25;101494.58;105367;1257;64858;-47
2023/03/18 01:26:29;;;;;;;10.10;4.80;;;;;;;5.57;62.31;101494.16;105670;1257;60450;-47
2023/03/18 01:28:59;;;;;;;13.60;10.60;;;;;;;5.59;62.29;101496.18;105474;1251;60546;-47
2023/03/18 01:31:28;;;;;;;9.70;4.60;;;;;;;5.60;62.29;101496.48;105445;1254;66263;-47
2023/03/18 01:34:01;;;;;;;15.40;11.10;;;;;;;5.58;62.38;101500.20;105541;1254;63070;-47
2023/03/18 01:36:37;;;;;;;16.20;11.50;;;;;;;5.55;62.37;101501.56;105548;1255;65002;-46
2023/03/18 01:39:08;;;;;;;13.50;6.60;;;;;;;5.49;62.35;101505.96;105643;1251;60561;-46
2023/03/18 01:41:39;;;;;;;10.90;4.90;;;;;;;5.46;62.60;101510.97;105486;1252;60560;-47
2023/03/18 01:44:16;;;;;;;17.60;10.90;;;;;;;5.44;62.50;101512.46;105614;1260;64914;-48
2023/03/18 01:46:49;;;;;;;9.40;4.70;;;;;;;5.47;62.31;101516.85;105482;1257;61653;-48
2023/03/18 01:49:23;;;;;;;12.80;9.00;;;;;;;5.53;62.28;101522.53;105555;1254;65198;-48
2023/03/18 01:52:08;;;;;;;14.40;10.30;;;;;;;5.53;62.37;101523.74;105482;1254;61197;-47
2023/03/18 01:55:01;;;;;;;9.80;5.20;;;;;;;5.52;62.38;101520.47;105602;1255;60556;-48
2023/03/18 01:57:31;;;;;;;14.50;10.60;;;;;;;5.52;62.41;101517.16;105430;1257;65886;-48
2023/03/18 02:00:00;;;;;;;10.70;4.40;;;;;;;5.52;62.32;101519.61;105068;1251;62632;-49
2023/03/18 02:02:33;;;;;;;16.70;10.70;;;;;;;5.50;62.26;101522.83;105492;1257;64062;-48
2023/03/18 02:05:05;;;;;;;9.80;4.30;;;;;;;5.47;62.40;101525.38;105553;1254;60564;-48
2023/03/18 02:07:34;;;;;;;13.60;9.90;;;;;;;5.43;62.28;101529.36;105372;1254;60597;-47
2023/03/18 02:10:11;;;;;;;13.90;9.60;;;;;;;5.45;62.24;101532.43;105424;1253;66421;-47
2023/03/18 02:12:48;;;;;;;7.90;3.40;;;;;;;5.50;62.22;101534.49;105413;1260;62713;-47
2023/03/18 02:15:22;;;;;;;13.20;9.10;;;;;;;5.51;62.27;101538.47;105632;1255;64016;-48
2023/03/18 02:18:08;;;;;;;9.50;4.10;;;;;;;5.50;62.31;101537.11;105608;1255;60494;-49
2023/03/18 02:21:06;;;;;;;12.30;9.20;;;;;;;5.50;62.20;101540.41;105385;1254;60607;-48
2023/03/18 02:23:57;;;;;;;8.20;3.60;;;;;;;5.48;62.19;101544.83;105673;1254;64977;-48
2023/03/18 02:26:48;;;;;;;14.20;9.70;;;;;;;5.45;62.19;101543.21;106209;1254;62640;-48
2023/03/18 02:29:23;;;;;;;9.40;3.40;;;;;;;5.39;61.95;101542.75;105489;1253;64941;-48
2023/03/18 02:31:56;;;;;;;13.30;9.00;;;;;;;5.35;62.07;101541.70;105375;1253;60584;-48
2023/03/18 02:34:24;;;;;;;8.60;3.10;;;;;;;5.38;62.16;101543.52;105440;1254;61665;-51
2023/03/18 02:36:56;;;;;;;9.20;3.90;;;;;;;5.42;62.13;101547.86;105476;1260;66064;-48
2023/03/18 02:39:24;;;;;;;12.60;8.80;;;;;;;5.45;62.07;101545.85;105567;1254;61858;-48
2023/03/18 02:41:56;;;;;;;13.10;9.10;;;;;;;5.46;62.06;101544.56;105522;1253;64890;-48
2023/03/18 02:44:24;;;;;;;9.80;4.20;;;;;;;5.45;61.98;101544.76;105379;1257;61816;-48
2023/03/18 02:47:23;;;;;;;7.70;3.20;;;;;;;5.43;61.93;101545.23;104935;1261;60689;-46
2023/03/18 02:49:52;;;;;;;10.60;4.20;;;;;;;5.39;61.99;101550.77;105563;1254;66128;-46
2023/03/18 02:52:21;;;;;;;13.20;8.90;;;;;;;5.34;62.00;101547.83;105354;1254;62657;-46
2023/03/18 02:54:50;;;;;;;8.00;3.00;;;;;;;5.31;62.02;101546.91;105360;1256;64803;-46
2023/03/18 02:57:19;;;;;;;8.80;3.70;;;;;;;5.27;62.17;101549.13;105250;1253;60683;-46
2023/03/18 02:59:54;;;;;;;11.80;8.80;;;;;;;5.24;62.24;101548.94;105257;1254;60539;-46
2023/03/18 03:02:23;;;;;;;8.70;3.70;;;;;;;5.24;62.27;101545.96;105306;1253;64933;-47
2023/03/18 03:04:51;;;;;;;18.30;9.20;;;;;;;5.29;62.14;101549.24;109199;1253;62593;-47
2023/03/18 03:07:20;;;;;;;8.60;3.80;;;;;;;5.35;62.02;101548.30;109307;1253;65461;-47
2023/03/18 03:09:51;;;;;;;8.60;3.60;;;;;;;5.40;61.79;101546.90;109305;1252;58457;-47
2023/03/18 03:12:20;;;;;;;15.60;10.10;;;;;;;5.42;61.63;101546.64;109179;1254;58625;-47
2023/03/18 03:14:51;;;;;;;11.70;5.20;;;;;;;5.42;61.40;101541.60;109289;1253;65037;-47
2023/03/18 03:17:20;;;;;;;14.60;9.40;;;;;;;5.36;61.12;101540.77;106098;1254;62613;-49
2023/03/18 03:19:53;;;;;;;13.70;9.20;;;;;;;5.30;61.26;101541.52;105623;1254;64977;-48
2023/03/18 03:22:21;;;;;;;9.00;3.50;;;;;;;5.26;61.38;101548.84;105454;1256;274082;-48
2023/03/18 03:27:58;;;;;;;7.60;3.50;;;;;;;5.01;61.75;101547.87;102331;1292;600632;-47
2023/03/18 03:30:27;;;;;;;14.80;8.70;;;;;;;5.14;61.36;101551.73;104555;1270;59414;-47
2023/03/18 03:33:01;;;;;;;9.20;3.60;;;;;;;5.19;61.11;101556.42;104800;1270;59301;-47
2023/03/18 03:35:30;;;;;;;14.10;9.10;;;;;;;5.19;60.99;101557.95;104431;1264;64847;-47
2023/03/18 03:37:58;;;;;;;12.20;8.80;;;;;;;5.16;61.13;101564.52;104811;1264;62613;-47
2023/03/18 03:40:27;;;;;;;8.60;3.40;;;;;;;5.15;61.05;101562.13;104847;1264;182835;-48
2023/03/18 03:42:56;;;;;;;15.90;8.90;;;;;;;5.10;61.02;101557.80;105051;1264;59334;-47
2023/03/18 03:45:25;;;;;;;8.90;3.80;;;;;;;5.03;61.05;101559.13;104683;1266;59407;-47
2023/03/18 03:47:54;;;;;;;14.50;9.20;;;;;;;4.96;61.22;101561.27;104807;1264;63445;-47
2023/03/18 03:50:25;;;;;;;10.60;4.70;;;;;;;4.89;61.33;101555.11;105190;1260;62732;-47
2023/03/18 03:52:54;;;;;;;9.90;4.20;;;;;;;4.84;61.46;101553.38;105229;1254;65013;-47
2023/03/18 03:55:23;;;;;;;13.70;5.40;;;;;;;4.78;61.50;101562.29;105461;1260;59692;-47
2023/03/18 03:57:53;;;;;;;13.70;8.70;;;;;;;4.80;61.56;101565.36;105318;1260;59640;-48
2023/03/18 04:00:22;;;;;;;9.70;4.40;;;;;;;4.85;61.45;101565.49;105072;1254;64429;-47
2023/03/18 04:02:51;;;;;;;13.80;8.80;;;;;;;4.87;61.36;101568.74;106066;1254;62326;-47
2023/03/18 04:05:22;;;;;;;10.40;4.70;;;;;;;4.89;61.44;101572.34;105132;1257;65029;-48
2023/03/18 04:07:51;;;;;;;9.60;3.70;;;;;;;4.88;61.42;101574.09;105297;1254;59656;-48
2023/03/18 04:10:26;;;;;;;12.60;8.30;;;;;;;4.84;61.46;101575.47;105253;1260;59637;-47
2023/03/18 04:12:55;;;;;;;9.70;3.60;;;;;;;4.80;61.51;101573.86;105462;1254;64440;-47
2023/03/18 04:15:29;;;;;;;8.40;3.60;;;;;;;4.77;61.53;101571.53;105041;1257;62342;-47
2023/03/18 04:18:05;;;;;;;15.00;9.10;;;;;;;4.73;61.66;101568.05;105543;1254;65008;-47
2023/03/18 04:20:35;;;;;;;9.40;3.30;;;;;;;4.69;61.82;101569.75;105734;1258;59561;-47
2023/03/18 04:23:07;;;;;;;9.30;3.90;;;;;;;4.73;61.84;101570.64;105226;1254;59508;-47
2023/03/18 04:25:35;;;;;;;7.40;3.50;;;;;;;4.81;61.73;101572.61;105256;1258;65596;-47
2023/03/18 04:28:04;;;;;;;13.80;8.00;;;;;;;4.86;61.68;101573.14;105335;1257;62657;-48
2023/03/18 04:30:34;;;;;;;8.70;3.30;;;;;;;4.85;61.61;101574.22;105088;1254;64023;-48
2023/03/18 04:33:06;;;;;;;12.10;7.50;;;;;;;4.82;61.59;101572.58;105067;1257;59684;-47
2023/03/18 04:35:37;;;;;;;10.00;2.90;;;;;;;4.79;61.62;101573.72;105749;1255;59643;-47
2023/03/18 04:38:05;;;;;;;6.80;2.90;;;;;;;4.76;61.68;101572.98;108024;1258;65073;-49
2023/03/18 04:40:34;;;;;;;10.70;3.60;;;;;;;4.73;61.72;101574.32;105258;1260;61359;-48
2023/03/18 04:43:03;;;;;;;12.30;7.90;;;;;;;4.70;61.83;101572.14;105266;1260;65087;-47
2023/03/18 04:45:31;;;;;;;8.60;3.80;;;;;;;4.68;61.92;101569.79;105282;1259;59906;-48
2023/03/18 04:48:03;;;;;;;6.70;3.30;;;;;;;4.70;61.84;101570.23;104999;1254;59741;-48
2023/03/18 04:50:35;;;;;;;12.90;7.60;;;;;;;4.76;61.89;101571.77;105479;1258;65353;-49
2023/03/18 04:53:05;;;;;;;7.70;2.70;;;;;;;4.79;61.76;101572.52;105318;1254;62579;-48
2023/03/18 04:55:36;;;;;;;7.90;2.80;;;;;;;4.78;61.77;101577.74;105367;1260;65089;-48
2023/03/18 04:58:06;;;;;;;11.90;7.10;;;;;;;4.77;61.87;101580.92;105440;1254;60565;-48
2023/03/18 05:00:39;;;;;;;7.10;3.20;;;;;;;4.77;61.86;101580.24;105726;1254;59778;-48
2023/03/18 05:03:20;;;;;;;7.00;2.60;;;;;;;4.76;61.92;101581.33;105394;1257;65552;-49
2023/03/18 05:05:51;;;;;;;10.70;7.30;;;;;;;4.74;61.88;101584.36;105379;1254;62813;-48
2023/03/18 05:08:22;;;;;;;7.40;2.90;;;;;;;4.71;62.11;101582.20;105350;1257;64805;-48
2023/03/18 05:10:51;;;;;;;12.20;7.50;;;;;;;4.68;62.13;101583.36;105265;1254;60879;-48
2023/03/18 05:13:21;;;;;;;13.30;3.60;;;;;;;4.68;62.24;101587.18;105392;1254;59686;-48
2023/03/18 05:15:49;;;;;;;7.90;2.90;;;;;;;4.75;62.16;101588.30;105307;1260;65195;-48
2023/03/18 05:18:18;;;;;;;12.40;7.10;;;;;;;4.83;62.02;101589.58;105305;1254;62334;-48
2023/03/18 05:20:47;;;;;;;8.20;3.10;;;;;;;4.88;62.02;101590.45;105285;1260;64817;-48
2023/03/18 05:23:16;;;;;;;11.80;6.90;;;;;;;4.90;61.76;101594.36;105492;1261;60445;-49
2023/03/18 05:25:50;;;;;;;6.20;3.00;;;;;;;4.90;61.81;101595.59;105381;1254;59631;-48
2023/03/18 05:28:20;;;;;;;6.70;3.10;;;;;;;4.89;61.78;101594.73;105561;1260;65820;-48
2023/03/18 05:31:04;;;;;;;7.40;2.60;;;;;;;4.90;61.55;101598.89;105413;1254;62503;-48
2023/03/18 05:33:34;;;;;;;11.00;7.10;;;;;;;4.90;61.65;101600.29;105444;1260;63689;-49
2023/03/18 05:36:04;;;;;;;8.70;3.50;;;;;;;4.89;61.61;101599.80;105418;1257;59839;-49
2023/03/18 05:38:41;;;;;;;7.60;3.90;;;;;;;4.88;61.57;101600.71;105251;1257;59672;-48
2023/03/18 05:41:10;;;;;;;11.70;7.10;;;;;;;4.87;61.68;101604.38;105406;1259;65405;-48
2023/03/18 05:43:39;;;;;;;7.70;3.40;;;;;;;4.88;61.72;101602.29;105608;1255;61758;-47
2023/03/18 05:46:08;;;;;;;7.90;3.70;;;;;;;4.94;61.67;101601.34;105525;1257;64888;-48
2023/03/18 05:48:56;;;;;;;7.00;3.30;;;;;;;5.07;61.41;101601.05;109036;1257;58016;-48
2023/03/18 05:51:27;;;;;;;10.70;6.30;;;;;;;5.13;61.22;101603.06;109068;1256;57283;-49
2023/03/18 05:53:56;;;;;;;9.70;6.00;;;;;;;5.18;61.22;101604.13;109001;1254;65571;-49
2023/03/18 05:56:29;;;;;;;6.00;2.30;;;;;;;5.23;60.93;101604.29;109058;1256;62615;-48
2023/03/18 05:58:59;;;;;;;9.10;6.00;;;;;;;5.26;60.69;101607.83;108913;1254;65098;-48
2023/03/18 06:01:38;;;;;;;8.90;3.20;;;;;;;5.29;60.56;101609.95;107272;1256;59657;-48
2023/03/18 06:04:07;;;;;;;10.30;5.70;;;;;;;5.31;60.35;101610.91;105242;1254;59714;-48
2023/03/18 06:06:39;;;;;;;9.50;5.80;;;;;;;5.33;60.34;101610.85;105429;1260;65413;-48
2023/03/18 06:09:10;;;;;;;6.50;2.40;;;;;;;5.35;60.28;101614.60;105299;1257;62282;-48
2023/03/18 06:11:42;;;;;;;10.20;5.70;;;;;;;5.33;60.28;101615.90;105347;1254;64047;-48
2023/03/18 06:14:11;;;;;;;6.90;2.60;;;;;;;5.34;60.24;101619.67;105605;1254;59846;-48
2023/03/18 06:16:40;;;;;;;9.30;5.30;;;;;;;5.40;60.22;101621.38;105414;1257;59586;-48
2023/03/18 06:19:11;;;;;;;11.60;6.20;;;;;;;5.43;60.15;101622.13;105541;1258;65470;-50
2023/03/18 06:21:41;;;;;;;7.50;3.60;;;;;;;5.46;60.07;101624.45;105375;1254;62394;-49
2023/03/18 06:24:09;;;;;;;10.20;5.70;;;;;;;5.47;60.01;101627.55;105416;1259;63660;-49
2023/03/18 06:26:40;;;;;;;8.50;6.00;;;;;;;5.47;59.94;101625.98;105517;1257;59535;-48
2023/03/18 06:29:09;;;;;;;10.20;2.70;;;;;;;5.47;60.02;101626.67;105442;1254;59739;-49
2023/03/18 06:31:38;;;;;;;4.20;1.80;;;;;;;5.49;60.16;101627.31;105474;1254;64119;-48
2023/03/18 06:34:14;;;;;;;10.70;2.90;;;;;;;5.49;60.05;101625.05;105250;1254;61874;-49
2023/03/18 06:36:43;;;;;;;12.10;6.20;;;;;;;5.50;59.97;101624.66;105280;1254;65023;-47
2023/03/18 06:39:17;;;;;;;6.00;2.10;;;;;;;5.49;60.00;101622.77;105207;1254;59697;-48
2023/03/18 06:41:47;;;;;;;9.10;5.30;;;;;;;5.53;59.97;101624.86;105245;1254;59825;-47
2023/03/18 06:44:26;;;;;;;6.90;1.90;;;;;;;5.63;59.85;101624.83;105423;1254;65131;-50
2023/03/18 06:47:03;;;;;;;7.40;4.40;;;;;;;5.76;59.67;101623.96;105230;1260;62574;-48
2023/03/18 06:49:36;;;;;;;5.40;2.20;;;;;;;5.87;59.59;101625.63;105224;1256;64220;-48
2023/03/18 06:52:13;;;;;;;6.00;2.30;;;;;;;5.93;59.16;101625.71;105182;1254;59622;-49
2023/03/18 06:54:42;;;;;;;8.40;4.80;;;;;;;5.94;58.95;101624.61;105572;1254;59823;-46
2023/03/18 06:57:11;;;;;;;7.90;5.20;;;;;;;5.93;58.88;101630.08;105388;1255;64420;-47
2023/03/18 06:59:41;;;;;;;10.00;5.50;;;;;;;5.91;58.85;101631.20;105489;1259;61462;-47
2023/03/18 07:02:09;;;;;;;8.10;1.80;;;;;;;5.86;58.93;101631.08;106070;1259;65176;-47
2023/03/18 07:04:39;;;;;;;8.10;5.00;;;;;;;5.81;59.04;101633.02;105495;1254;59666;-48
2023/03/18 07:07:08;;;;;;;8.10;5.60;;;;;;;5.78;59.23;101630.33;105398;1254;59739;-47
2023/03/18 07:09:36;;;;;;;6.40;2.50;;;;;;;5.80;59.45;101633.22;105300;1260;65413;-48
2023/03/18 07:12:08;;;;;;;10.00;5.70;;;;;;;5.81;59.47;101633.35;105333;1259;61461;-47
2023/03/18 07:14:36;;;;;;;9.30;5.40;;;;;;;5.82;59.60;101632.79;105142;1257;65030;-48
2023/03/18 07:17:05;;;;;;;7.00;2.70;;;;;;;5.89;59.47;101632.30;105252;1254;59829;-48
2023/03/18 07:19:42;;;;;;;8.30;5.30;;;;;;;5.99;59.47;101630.22;105155;1257;59731;-48
2023/03/18 07:22:10;;;;;;;8.00;4.80;;;;;;;6.09;59.44;101628.95;105163;1259;65021;-47
2023/03/18 07:24:39;;;;;;;7.20;4.70;;;;;;;6.17;59.45;101631.59;105714;1254;62721;-46
2023/03/18 07:27:12;;;;;;;7.90;5.10;;;;;;;6.23;59.34;101632.54;105136;1254;65026;-47
2023/03/18 07:29:42;;;;;;;6.10;2.80;;;;;;;6.29;59.25;101633.51;105273;1254;60923;-47
2023/03/18 07:32:10;;;;;;;7.10;4.60;;;;;;;6.34;59.05;101636.42;105370;1259;60507;-46
2023/03/18 07:34:39;;;;;;;10.30;5.80;;;;;;;6.37;58.84;101632.31;105435;1254;65225;-47
2023/03/18 07:37:08;;;;;;;7.50;5.10;;;;;;;6.37;58.81;101630.20;108278;1258;61286;-47
2023/03/18 07:39:37;;;;;;;12.60;5.50;;;;;;;6.37;58.70;101635.27;105220;1254;65050;-47
2023/03/18 07:42:06;;;;;;;9.20;5.40;;;;;;;6.38;58.71;101636.29;105180;1254;60362;-48
2023/03/18 07:44:35;;;;;;;7.50;4.90;;;;;;;6.40;58.50;101632.17;105287;1260;60537;-46
2023/03/18 07:47:04;;;;;;;7.50;2.50;;;;;;;6.43;58.28;101634.33;105303;1258;66490;-47
2023/03/18 07:49:32;;;;;;;8.60;5.80;;;;;;;6.46;58.34;101634.01;105511;1254;62732;-47
2023/03/18 07:52:02;;;;;;;8.20;5.30;;;;;;;6.46;58.24;101635.74;105256;1258;65062;-47
2023/03/18 07:54:32;;;;;;;5.10;2.40;;;;;;;6.48;58.20;101633.93;105632;1254;60562;-48
2023/03/18 07:57:00;;;;;;;8.30;5.40;;;;;;;6.48;58.28;101634.78;105178;1256;60434;-49
2023/03/18 07:59:29;;;;;;;7.70;4.80;;;;;;;6.50;58.26;101631.03;105342;1256;65168;-49
2023/03/18 08:01:58;;;;;;;7.10;4.50;;;;;;;6.63;58.05;101627.86;105358;1257;62649;-48
2023/03/18 08:04:41;;;;;;;5.90;2.00;;;;;;;6.78;57.83;101627.04;105162;1254;65138;-48
2023/03/18 08:07:10;;;;;;;7.70;5.10;;;;;;;6.91;57.42;101628.23;105284;1254;60607;-46
2023/03/18 08:09:38;;;;;;;6.60;4.00;;;;;;;6.97;56.91;101625.50;105551;1257;60530;-48
2023/03/18 08:12:07;;;;;;;8.10;5.00;;;;;;;7.01;57.03;101626.36;105229;1260;75051;-48
2023/03/18 08:14:36;;;;;;;8.50;5.00;;;;;;;7.07;57.03;101628.01;105334;1254;62811;-46
2023/03/18 08:17:04;;;;;;;7.80;4.70;;;;;;;7.14;56.83;101627.21;105325;1254;64969;-46
2023/03/18 08:19:33;;;;;;;7.90;5.20;;;;;;;7.17;56.59;101629.65;105330;1254;60777;-47
2023/03/18 08:22:02;;;;;;;7.50;4.90;;;;;;;7.21;56.51;101629.66;105286;1255;60534;-48
2023/03/18 08:24:37;;;;;;;8.30;5.30;;;;;;;7.25;56.47;101626.88;105252;1254;65339;-48
2023/03/18 08:27:05;;;;;;;7.60;4.90;;;;;;;7.28;56.11;101623.60;105414;1254;62396;-47
2023/03/18 08:29:34;;;;;;;8.00;4.30;;;;;;;7.25;55.99;101624.38;105375;1257;63756;-48
2023/03/18 08:32:04;;;;;;;7.20;4.80;;;;;;;7.26;56.12;101625.22;105259;1255;60477;-48
2023/03/18 08:34:33;;;;;;;7.10;4.90;;;;;;;7.32;55.95;101625.48;105311;1259;61372;-48
2023/03/18 08:37:01;;;;;;;6.50;4.20;;;;;;;7.33;55.88;101625.06;105449;1254;66188;-48
2023/03/18 08:39:31;;;;;;;8.00;5.40;;;;;;;7.37;55.86;101625.08;105226;1257;62418;-49
2023/03/18 08:42:03;;;;;;;7.30;4.90;;;;;;;7.39;55.78;101628.14;105314;1256;64961;-48
2023/03/18 08:44:34;;;;;;;5.50;2.20;;;;;;;7.41;55.69;101629.10;105819;1254;60473;-48
2023/03/18 08:47:02;;;;;;;8.20;4.70;;;;;;;7.42;55.68;101629.04;105687;1250;60552;-48
2023/03/18 08:49:31;;;;;;;7.80;4.80;;;;;;;7.44;55.79;101630.86;105516;1253;66310;-48
2023/03/18 08:51:59;;;;;;;7.30;4.60;;;;;;;7.47;55.61;101632.14;105532;1254;62442;-49
2023/03/18 08:54:28;;;;;;;8.30;4.30;;;;;;;7.48;55.48;101632.59;105646;1254;63933;-48
2023/03/18 08:57:00;;;;;;;9.00;4.20;;;;;;;7.47;55.31;101633.17;105336;1253;60497;-48
2023/03/18 08:59:30;;;;;;;8.10;5.00;;;;;;;7.40;55.42;101636.98;105669;1253;60577;-46
2023/03/18 09:01:59;;;;;;;8.60;4.80;;;;;;;7.35;55.61;101634.96;105387;1250;65398;-47
2023/03/18 09:04:28;;;;;;;9.00;5.00;;;;;;;7.30;55.68;101636.95;105872;1250;62415;-47
2023/03/18 09:06:56;;;;;;;7.00;4.50;;;;;;;7.20;55.85;101640.36;106124;1251;64747;-48
2023/03/18 09:09:30;;;;;;;9.60;4.90;;;;;;;7.13;56.05;101641.53;105647;1250;60487;-48
2023/03/18 09:12:12;;;;;;;7.00;4.40;;;;;;;7.09;56.17;101642.77;105462;1250;61038;-48
2023/03/18 09:14:42;;;;;;;7.50;4.20;;;;;;;7.12;56.22;101642.48;105655;1253;65212;-46
2023/03/18 09:17:12;;;;;;;7.60;4.50;;;;;;;7.25;56.02;101644.33;105660;1253;70436;-49
2023/03/18 09:19:40;;;;;;;9.50;5.20;;;;;;;7.30;55.93;101647.94;105356;1251;65033;-48
2023/03/18 09:22:12;;;;;;;7.70;5.30;;;;;;;7.32;55.90;101648.17;105496;1250;60597;-48
2023/03/18 09:24:43;;;;;;;8.70;4.90;;;;;;;7.34;55.74;101649.31;105598;1251;60528;-48
2023/03/18 09:27:11;;;;;;;8.00;5.20;;;;;;;7.28;55.86;101647.16;105555;1252;66190;-48
2023/03/18 09:29:40;;;;;;;9.80;5.20;;;;;;;7.25;56.04;101647.45;105620;1250;62751;-48
2023/03/18 09:32:08;;;;;;;8.30;5.50;;;;;;;7.16;56.33;101645.08;105463;1250;63711;-47
2023/03/18 09:34:37;;;;;;;6.70;1.90;;;;;;;7.10;56.57;101645.86;105802;1253;60539;-48
2023/03/18 09:37:05;;;;;;;9.90;5.30;;;;;;;7.07;56.73;101643.72;105688;1251;60435;-48
2023/03/18 09:39:36;;;;;;;4.30;1.50;;;;;;;7.06;56.80;101641.15;105585;1254;66347;-46
2023/03/18 09:42:50;;;;;;;7.50;4.90;;;;;;;7.04;56.90;101635.14;105753;1250;63476;-46
2023/03/18 09:45:39;;;;;;;8.00;4.70;;;;;;;7.05;57.11;101635.08;105689;1250;63743;-46
2023/03/18 09:48:30;;;;;;;7.70;4.90;;;;;;;7.10;56.88;101632.43;105573;1250;60472;-48
2023/03/18 09:51:12;;;;;;;7.80;4.90;;;;;;;7.09;56.83;101628.61;105734;1251;60468;-47
2023/03/18 09:53:58;;;;;;;9.60;5.50;;;;;;;7.11;57.04;101625.39;105533;1253;66276;-47
2023/03/18 09:56:33;;;;;;;7.80;5.10;;;;;;;7.17;56.99;101627.41;105575;1250;62902;-49
2023/03/18 09:59:04;;;;;;;7.70;4.90;;;;;;;7.23;56.87;101627.61;105682;1257;65754;-47
2023/03/18 10:01:34;;;;;;;8.80;5.70;;;;;;;7.28;56.69;101629.00;105549;1252;60570;-47
2023/03/18 10:04:12;;;;;;;9.10;5.60;;;;;;;7.37;56.71;101630.34;105522;1257;60552;-50
2023/03/18 10:06:41;;;;;;;8.30;5.20;;;;;;;7.49;56.50;101627.65;105696;1250;66172;-46
2023/03/18 10:09:28;;;;;;;9.10;6.00;;;;;;;7.59;56.37;101630.86;105832;1251;62628;-48
2023/03/18 10:12:10;;;;;;;7.70;5.10;;;;;;;7.67;56.21;101634.66;105533;1252;64914;-48
2023/03/18 10:14:46;;;;;;;7.20;4.30;;;;;;;7.74;55.96;101635.20;105570;1250;60454;-47
2023/03/18 10:17:18;;;;;;;;;;;;;;;7.76;55.93;101637.20;105678;1254;60348;-62
2023/03/18 10:19:54;;;;;;;7.60;4.40;;;;;;;7.77;55.80;101638.02;106134;1250;65128;-62
2023/03/18 10:22:48;;;;;;;7.70;4.50;;;;;;;7.78;55.70;101638.14;106352;1250;62415;-63
2023/03/18 10:25:20;;;;;;;5.80;2.30;;;;;;;7.79;55.59;101637.55;106255;1254;63698;-47
2023/03/18 10:28:11;;;;;;;7.90;4.40;;;;;;;7.78;55.45;101632.91;106680;1250;60480;-48
2023/03/18 10:30:50;;;;;;;7.30;4.50;;;;;;;7.77;55.58;101631.39;105549;1254;60499;-46
2023/03/18 10:33:30;;;;;;;6.20;4.00;;;;;;;7.77;55.63;101630.15;105584;1251;66452;-47
2023/03/18 10:36:04;;;;;;;8.30;4.20;;;;;;;7.77;55.53;101629.45;105908;1254;62404;-48
2023/03/18 10:38:41;;;;;;;;;;;;;;;7.76;55.45;101627.95;105563;1250;65011;-47
2023/03/18 10:41:31;;;;;;;6.90;4.10;;;;;;;7.71;55.40;101622.61;105831;1253;60507;-47
2023/03/18 10:44:19;;;;;;;6.60;3.60;;;;;;;7.63;55.17;101618.80;105722;1254;60312;-47
2023/03/18 10:46:56;;;;;;;6.70;3.80;;;;;;;7.52;55.38;101620.02;105682;1254;66641;-48
2023/03/18 10:49:28;;;;;;;6.40;3.90;;;;;;;7.38;55.43;101625.20;105644;1250;62280;-48
2023/03/18 10:52:15;;;;;;;6.00;3.80;;;;;;;7.29;55.62;101624.95;105606;1251;63938;-48
2023/03/18 10:54:51;;;;;;;6.80;3.90;;;;;;;7.22;55.75;101630.12;108485;1250;60770;-47
2023/03/18 10:57:20;;;;;;;6.30;3.80;;;;;;;7.14;55.81;101626.66;105634;1250;60438;-48
2023/03/18 10:59:51;;;;;;;7.90;4.40;;;;;;;7.06;56.01;101627.71;105840;1254;66130;-47
2023/03/18 11:02:25;;;;;;;5.50;1.90;;;;;;;7.00;56.32;101626.60;105652;1250;62557;-47
2023/03/18 11:04:57;;;;;;;6.10;3.50;;;;;;;6.97;56.51;101627.95;105726;1250;65038;-49
2023/03/18 11:07:27;;;;;;;7.50;3.60;;;;;;;6.98;56.57;101626.86;105571;1254;60498;-47
2023/03/18 11:10:11;;;;;;;6.20;3.60;;;;;;;7.00;56.21;101625.37;105730;1250;60550;-47
2023/03/18 11:12:41;;;;;;;6.10;3.60;;;;;;;7.03;56.12;101625.08;105472;1254;65854;-50
2023/03/18 11:15:10;;;;;;;7.20;3.30;;;;;;;7.05;56.17;101622.19;105486;1250;62600;-47
2023/03/18 11:17:39;;;;;;;6.30;3.70;;;;;;;7.06;56.09;101621.44;105787;1251;64947;-49
2023/03/18 11:20:30;;;;;;;8.20;3.60;;;;;;;7.06;55.99;101622.28;105520;1250;60537;-49
2023/03/18 11:23:11;;;;;;;4.80;1.60;;;;;;;7.08;56.06;101624.66;105523;1250;60553;-47
2023/03/18 11:25:40;;;;;;;6.60;3.70;;;;;;;7.07;55.68;101622.61;105619;1250;66235;-47
2023/03/18 11:28:20;;;;;;;5.50;3.30;;;;;;;7.01;55.60;101619.75;106118;1258;61716;-47
2023/03/18 11:30:51;;;;;;;5.60;3.20;;;;;;;7.00;55.96;101617.19;105555;1254;65219;-47
2023/03/18 11:33:23;;;;;;;7.40;4.20;;;;;;;7.03;56.09;101614.95;105540;1253;60575;-47
2023/03/18 11:35:57;;;;;;;3.80;1.50;;;;;;;7.09;56.04;101613.27;105531;1255;60430;-47
2023/03/18 11:38:27;;;;;;;5.80;3.00;;;;;;;7.17;56.08;101612.56;105580;1253;64943;-47
2023/03/18 11:41:22;;;;;;;6.20;3.50;;;;;;;7.25;56.03;101609.55;105617;1253;62953;-47
2023/03/18 11:43:55;;;;;;;6.10;2.60;;;;;;;7.33;55.75;101604.13;106711;1251;65054;-48
2023/03/18 11:46:23;;;;;;;6.70;3.90;;;;;;;7.41;55.50;101603.59;105445;1253;60469;-49
2023/03/18 11:48:51;;;;;;;8.20;4.00;;;;;;;7.47;55.46;101604.18;105307;1254;60374;-48